sensor_id;sensor_type;location;lat;lon;timestamp;pressure;altitude;pressure_sealevel;temperature;humidity
66887;BME280;67239;51.680;5.976;2023-04-09T00:00:16;102460.41;;;9.72;81.59
66887;BME280;67239;51.680;5.976;2023-04-09T00:02:43;102458.69;;;9.65;81.89
66887;BME280;67239;51.680;5.976;2023-04-09T00:05:11;102465.69;;;9.61;81.91
66887;BME280;67239;51.680;5.976;2023-04-09T00:07:38;102463.03;;;9.61;82.01
66887;BME280;67239;51.680;5.976;2023-04-09T00:10:05;102456.94;;;9.59;82.22
66887;BME280;67239;51.680;5.976;2023-04-09T00:12:33;102463.06;;;9.60;82.19
66887;BME280;67239;51.680;5.976;2023-04-09T00:15:00;102463.06;;;9.58;82.01
66887;BME280;67239;51.680;5.976;2023-04-09T00:17:27;102462.19;;;9.59;82.12
66887;BME280;67239;51.680;5.976;2023-04-09T00:19:54;102457.78;;;9.57;82.19
66887;BME280;67239;51.680;5.976;2023-04-09T00:22:21;102456.91;;;9.56;82.13
66887;BME280;67239;51.680;5.976;2023-04-09T00:24:48;102460.41;;;9.57;82.47
66887;BME280;67239;51.680;5.976;2023-04-09T00:27:16;102452.50;;;9.57;82.17
66887;BME280;67239;51.680;5.976;2023-04-09T00:29:43;102455.16;;;9.57;82.46
66887;BME280;67239;51.680;5.976;2023-04-09T00:32:10;102449.03;;;9.55;82.58
66887;BME280;67239;51.680;5.976;2023-04-09T00:34:37;102450.75;;;9.59;82.14
66887;BME280;67239;51.680;5.976;2023-04-09T00:37:04;102453.41;;;9.56;82.31
66887;BME280;67239;51.680;5.976;2023-04-09T00:39:32;102446.38;;;9.58;82.40
66887;BME280;67239;51.680;5.976;2023-04-09T00:42:00;102441.09;;;9.58;82.17
66887;BME280;67239;51.680;5.976;2023-04-09T00:44:30;102444.63;;;9.55;82.08
66887;BME280;67239;51.680;5.976;2023-04-09T00:46:57;102441.13;;;9.55;82.48
66887;BME280;67239;51.680;5.976;2023-04-09T00:49:26;102442.00;;;9.54;82.06
66887;BME280;67239;51.680;5.976;2023-04-09T00:51:53;102435.88;;;9.50;82.37
66887;BME280;67239;51.680;5.976;2023-04-09T00:54:20;102440.25;;;9.48;82.21
66887;BME280;67239;51.680;5.976;2023-04-09T00:56:48;102433.22;;;9.44;82.59
66887;BME280;67239;51.680;5.976;2023-04-09T00:59:15;102435.00;;;9.43;82.57
66887;BME280;67239;51.680;5.976;2023-04-09T01:01:42;102434.13;;;9.44;82.52
66887;BME280;67239;51.680;5.976;2023-04-09T01:04:10;102431.47;;;9.43;82.45
66887;BME280;67239;51.680;5.976;2023-04-09T01:06:50;102434.13;;;9.40;82.84
66887;BME280;67239;51.680;5.976;2023-04-09T01:12:37;102426.22;;;9.40;82.89
66887;BME280;67239;51.680;5.976;2023-04-09T01:15:12;102425.34;;;9.38;82.97
66887;BME280;67239;51.680;5.976;2023-04-09T01:17:49;102425.34;;;9.41;82.91
66887;BME280;67239;51.680;5.976;2023-04-09T01:23:27;102418.31;;;9.40;82.62
66887;BME280;67239;51.680;5.976;2023-04-09T01:26:21;102419.19;;;9.36;83.01
66887;BME280;67239;51.680;5.976;2023-04-09T01:28:55;102420.06;;;9.35;82.93
66887;BME280;67239;51.680;5.976;2023-04-09T01:31:27;102417.44;;;9.35;83.13
66887;BME280;67239;51.680;5.976;2023-04-09T01:33:57;102414.81;;;9.33;83.00
66887;BME280;67239;51.680;5.976;2023-04-09T01:36:27;102413.03;;;9.29;83.19
66887;BME280;67239;51.680;5.976;2023-04-09T01:39:00;102419.19;;;9.28;83.31
66887;BME280;67239;51.680;5.976;2023-04-09T01:41:30;102420.06;;;9.30;82.89
66887;BME280;67239;51.680;5.976;2023-04-09T01:44:01;102413.94;;;9.26;83.34
66887;BME280;67239;51.680;5.976;2023-04-09T01:46:30;102417.44;;;9.25;83.18
66887;BME280;67239;51.680;5.976;2023-04-09T01:49:00;102410.41;;;9.24;83.14
66887;BME280;67239;51.680;5.976;2023-04-09T01:51:31;102424.47;;;9.25;83.25
66887;BME280;67239;51.680;5.976;2023-04-09T01:53:59;102415.69;;;9.18;83.32
66887;BME280;67239;51.680;5.976;2023-04-09T01:56:26;102407.78;;;9.20;83.55
66887;BME280;67239;51.680;5.976;2023-04-09T01:58:53;102420.91;;;9.21;83.57
66887;BME280;67239;51.680;5.976;2023-04-09T02:01:25;102410.41;;;9.20;83.63
66887;BME280;67239;51.680;5.976;2023-04-09T02:04:01;102406.91;;;9.19;83.63
66887;BME280;67239;51.680;5.976;2023-04-09T02:06:37;102406.03;;;9.17;83.76
66887;BME280;67239;51.680;5.976;2023-04-09T02:09:11;102409.53;;;9.14;83.54
66887;BME280;67239;51.680;5.976;2023-04-09T02:11:40;102410.41;;;9.12;83.53
66887;BME280;67239;51.680;5.976;2023-04-09T02:14:09;102410.41;;;9.12;83.65
66887;BME280;67239;51.680;5.976;2023-04-09T02:16:38;102407.75;;;9.12;83.81
66887;BME280;67239;51.680;5.976;2023-04-09T02:19:06;102413.91;;;9.11;83.57
66887;BME280;67239;51.680;5.976;2023-04-09T02:21:34;102410.41;;;9.09;84.28
66887;BME280;67239;51.680;5.976;2023-04-09T02:24:01;102407.78;;;9.09;83.41
66887;BME280;67239;51.680;5.976;2023-04-09T02:26:28;102414.81;;;9.10;83.71
66887;BME280;67239;51.680;5.976;2023-04-09T02:28:56;102413.91;;;9.08;83.45
66887;BME280;67239;51.680;5.976;2023-04-09T02:31:23;102412.16;;;9.07;83.76
66887;BME280;67239;51.680;5.976;2023-04-09T02:33:50;102411.25;;;9.06;83.58
66887;BME280;67239;51.680;5.976;2023-04-09T02:36:19;102414.78;;;9.08;83.34
66887;BME280;67239;51.680;5.976;2023-04-09T02:38:47;102411.25;;;9.06;83.28
66887;BME280;67239;51.680;5.976;2023-04-09T02:41:14;102410.38;;;9.02;83.09
66887;BME280;67239;51.680;5.976;2023-04-09T02:43:41;102409.50;;;8.99;83.23
66887;BME280;67239;51.680;5.976;2023-04-09T02:46:08;102409.53;;;8.97;83.33
66887;BME280;67239;51.680;5.976;2023-04-09T02:48:36;102395.47;;;8.95;82.88
66887;BME280;67239;51.680;5.976;2023-04-09T02:51:06;102401.59;;;8.90;82.92
66887;BME280;67239;51.680;5.976;2023-04-09T02:53:33;102399.84;;;8.85;82.77
66887;BME280;67239;51.680;5.976;2023-04-09T02:56:01;102395.47;;;8.86;82.42
66887;BME280;67239;51.680;5.976;2023-04-09T02:58:28;102391.94;;;8.81;82.20
66887;BME280;67239;51.680;5.976;2023-04-09T03:00:55;102397.19;;;8.76;82.43
66887;BME280;67239;51.680;5.976;2023-04-09T03:03:22;102397.19;;;8.76;82.23
66887;BME280;67239;51.680;5.976;2023-04-09T03:05:49;102401.56;;;8.73;82.23
66887;BME280;67239;51.680;5.976;2023-04-09T03:08:16;102393.69;;;8.71;81.70
66887;BME280;67239;51.680;5.976;2023-04-09T03:10:43;102400.66;;;8.66;81.58
66887;BME280;67239;51.680;5.976;2023-04-09T03:13:10;102394.53;;;8.62;81.55
66887;BME280;67239;51.680;5.976;2023-04-09T03:15:37;102393.63;;;8.55;81.32
66887;BME280;67239;51.680;5.976;2023-04-09T03:18:05;102394.47;;;8.50;81.20
66887;BME280;67239;51.680;5.976;2023-04-09T03:20:32;102398.84;;;8.43;81.09
66887;BME280;67239;51.680;5.976;2023-04-09T03:23:02;102397.06;;;8.37;81.13
66887;BME280;67239;51.680;5.976;2023-04-09T03:25:38;102391.75;;;8.27;81.50
66887;BME280;67239;51.680;5.976;2023-04-09T03:28:14;102395.22;;;8.19;81.83
66887;BME280;67239;51.680;5.976;2023-04-09T03:30:48;102391.66;;;8.08;82.15
66887;BME280;67239;51.680;5.976;2023-04-09T03:33:15;102392.50;;;7.98;82.32
66887;BME280;67239;51.680;5.976;2023-04-09T03:35:48;102383.69;;;7.89;82.62
66887;BME280;67239;51.680;5.976;2023-04-09T03:38:21;102378.38;;;7.78;83.02
66887;BME280;67239;51.680;5.976;2023-04-09T03:40:49;102385.34;;;7.72;83.46
66887;BME280;67239;51.680;5.976;2023-04-09T03:43:16;102380.91;;;7.65;83.66
66887;BME280;67239;51.680;5.976;2023-04-09T03:45:49;102379.09;;;7.53;83.75
66887;BME280;67239;51.680;5.976;2023-04-09T03:48:22;102378.16;;;7.44;83.99
66887;BME280;67239;51.680;5.976;2023-04-09T03:50:50;102376.38;;;7.40;84.83
66887;BME280;67239;51.680;5.976;2023-04-09T03:53:27;102378.06;;;7.32;85.15
66887;BME280;67239;51.680;5.976;2023-04-09T03:56:00;102368.41;;;7.25;85.29
66887;BME280;67239;51.680;5.976;2023-04-09T03:58:29;102375.34;;;7.20;86.08
66887;BME280;67239;51.680;5.976;2023-04-09T04:00:59;102367.44;;;7.12;86.07
66887;BME280;67239;51.680;5.976;2023-04-09T04:03:35;102376.97;;;7.07;86.20
66887;BME280;67239;51.680;5.976;2023-04-09T04:06:11;102371.66;;;6.99;86.49
66887;BME280;67239;51.680;5.976;2023-04-09T04:08:49;102370.72;;;6.92;86.87
66887;BME280;67239;51.680;5.976;2023-04-09T04:11:20;102368.94;;;6.88;87.46
66887;BME280;67239;51.680;5.976;2023-04-09T04:13:51;102370.63;;;6.81;87.71
66887;BME280;67239;51.680;5.976;2023-04-09T04:16:18;102365.34;;;6.77;88.18
66887;BME280;67239;51.680;5.976;2023-04-09T04:18:46;102365.25;;;6.67;88.06
66887;BME280;67239;51.680;5.976;2023-04-09T04:21:15;102363.44;;;6.63;88.40
66887;BME280;67239;51.680;5.976;2023-04-09T04:23:48;102360.78;;;6.59;88.67
66887;BME280;67239;51.680;5.976;2023-04-09T04:26:18;102360.72;;;6.51;88.52
66887;BME280;67239;51.680;5.976;2023-04-09T04:28:45;102367.63;;;6.46;88.83
66887;BME280;67239;51.680;5.976;2023-04-09T04:31:24;102364.97;;;6.40;89.23
66887;BME280;67239;51.680;5.976;2023-04-09T04:33:51;102368.38;;;6.34;89.26
66887;BME280;67239;51.680;5.976;2023-04-09T04:36:18;102364.84;;;6.30;89.58
66887;BME280;67239;51.680;5.976;2023-04-09T04:38:49;102363.91;;;6.24;89.87
66887;BME280;67239;51.680;5.976;2023-04-09T04:41:29;102371.69;;;6.20;90.01
66887;BME280;67239;51.680;5.976;2023-04-09T04:44:09;102376.03;;;6.15;90.20
66887;BME280;67239;51.680;5.976;2023-04-09T04:46:37;102379.47;;;6.13;90.49
66887;BME280;67239;51.680;5.976;2023-04-09T04:49:04;102374.16;;;6.06;90.76
66887;BME280;67239;51.680;5.976;2023-04-09T04:51:38;102378.47;;;6.04;90.85
66887;BME280;67239;51.680;5.976;2023-04-09T04:54:09;102381.03;;;6.00;91.02
66887;BME280;67239;51.680;5.976;2023-04-09T04:56:37;102379.22;;;5.97;91.07
66887;BME280;67239;51.680;5.976;2023-04-09T04:59:24;102378.25;;;5.90;91.19
66887;BME280;67239;51.680;5.976;2023-04-09T05:01:57;102384.31;;;5.86;90.82
66887;BME280;67239;51.680;5.976;2023-04-09T05:04:26;102379.06;;;5.85;90.99
66887;BME280;67239;51.680;5.976;2023-04-09T05:06:55;102380.78;;;5.83;91.06
66887;BME280;67239;51.680;5.976;2023-04-09T05:09:24;102386.91;;;5.83;91.16
66887;BME280;67239;51.680;5.976;2023-04-09T05:12:07;102379.00;;;5.80;91.07
66887;BME280;67239;51.680;5.976;2023-04-09T05:14:37;102381.81;;;5.96;90.98
66887;BME280;67239;51.680;5.976;2023-04-09T05:17:05;102377.09;;;6.33;89.95
66887;BME280;67239;51.680;5.976;2023-04-09T05:19:40;102372.25;;;6.70;88.65
66887;BME280;67239;51.680;5.976;2023-04-09T05:22:11;102371.69;;;7.04;87.38
66887;BME280;67239;51.680;5.976;2023-04-09T05:24:43;102375.50;;;7.40;85.77
66887;BME280;67239;51.680;5.976;2023-04-09T05:27:11;102372.13;;;7.56;84.42
66887;BME280;67239;51.680;5.976;2023-04-09T05:29:40;102375.44;;;7.30;84.76
66887;BME280;67239;51.680;5.976;2023-04-09T05:32:08;102373.38;;;6.95;85.64
66887;BME280;67239;51.680;5.976;2023-04-09T05:34:38;102376.69;;;6.74;86.12
66887;BME280;67239;51.680;5.976;2023-04-09T05:37:05;102376.50;;;6.59;86.85
66887;BME280;67239;51.680;5.976;2023-04-09T05:39:36;102376.41;;;6.48;87.20
66887;BME280;67239;51.680;5.976;2023-04-09T05:42:04;102366.72;;;6.41;87.70
66887;BME280;67239;51.680;5.976;2023-04-09T05:45:01;102373.63;;;6.35;88.05
66887;BME280;67239;51.680;5.976;2023-04-09T05:47:28;102366.59;;;6.31;88.30
66887;BME280;67239;51.680;5.976;2023-04-09T05:50:03;102370.97;;;6.32;88.41
66887;BME280;67239;51.680;5.976;2023-04-09T05:52:31;102372.72;;;6.32;88.50
66887;BME280;67239;51.680;5.976;2023-04-09T05:55:02;102378.00;;;6.35;88.59
66887;BME280;67239;51.680;5.976;2023-04-09T05:57:40;102377.13;;;6.36;88.77
66887;BME280;67239;51.680;5.976;2023-04-09T06:00:08;102381.53;;;6.39;88.79
66887;BME280;67239;51.680;5.976;2023-04-09T06:02:46;102382.50;;;6.45;88.62
66887;BME280;67239;51.680;5.976;2023-04-09T06:05:14;102383.41;;;6.49;88.68
66887;BME280;67239;51.680;5.976;2023-04-09T06:07:41;102376.44;;;6.54;88.60
66887;BME280;67239;51.680;5.976;2023-04-09T06:10:10;102379.97;;;6.58;88.36
66887;BME280;67239;51.680;5.976;2023-04-09T06:12:38;102372.22;;;6.64;88.17
66887;BME280;67239;51.680;5.976;2023-04-09T06:15:06;102377.50;;;6.70;88.22
66887;BME280;67239;51.680;5.976;2023-04-09T06:17:36;102372.34;;;6.76;87.92
66887;BME280;67239;51.680;5.976;2023-04-09T06:20:04;102371.47;;;6.79;87.63
66887;BME280;67239;51.680;5.976;2023-04-09T06:22:32;102377.69;;;6.87;87.78
66887;BME280;67239;51.680;5.976;2023-04-09T06:24:59;102381.22;;;6.92;87.34
66887;BME280;67239;51.680;5.976;2023-04-09T06:27:26;102390.91;;;6.99;87.24
66887;BME280;67239;51.680;5.976;2023-04-09T06:29:56;102390.09;;;7.05;87.24
66887;BME280;67239;51.680;5.976;2023-04-09T06:32:23;102392.78;;;7.14;86.58
66887;BME280;67239;51.680;5.976;2023-04-09T06:34:50;102399.81;;;7.17;86.77
66887;BME280;67239;51.680;5.976;2023-04-09T06:37:17;102398.09;;;7.21;85.92
66887;BME280;67239;51.680;5.976;2023-04-09T06:39:44;102395.53;;;7.27;86.27
66887;BME280;67239;51.680;5.976;2023-04-09T06:42:26;102397.38;;;7.37;86.21
66887;BME280;67239;51.680;5.976;2023-04-09T06:44:58;102395.69;;;7.50;85.94
66887;BME280;67239;51.680;5.976;2023-04-09T06:47:25;102394.00;;;7.57;85.48
66887;BME280;67239;51.680;5.976;2023-04-09T06:49:52;102400.16;;;7.64;nan
66887;BME280;67239;51.680;5.976;2023-04-09T06:52:19;102401.97;;;7.71;84.38
66887;BME280;67239;51.680;5.976;2023-04-09T06:54:46;102402.91;;;7.77;84.36
66887;BME280;67239;51.680;5.976;2023-04-09T06:57:13;102399.44;;;7.85;84.77
66887;BME280;67239;51.680;5.976;2023-04-09T06:59:40;102415.25;;;7.97;83.76
66887;BME280;67239;51.680;5.976;2023-04-09T07:02:07;102404.81;;;8.06;83.35
66887;BME280;67239;51.680;5.976;2023-04-09T07:04:35;102406.56;;;8.15;84.75
66887;BME280;67239;51.680;5.976;2023-04-09T07:07:02;102406.69;;;8.42;86.33
66887;BME280;67239;51.680;5.976;2023-04-09T07:09:29;102403.31;;;8.70;84.93
66887;BME280;67239;51.680;5.976;2023-04-09T07:11:57;102401.63;;;8.93;83.92
66887;BME280;67239;51.680;5.976;2023-04-09T07:14:24;102399.88;;;9.15;82.66
66887;BME280;67239;51.680;5.976;2023-04-09T07:16:51;102405.13;;;9.38;82.37
66887;BME280;67239;51.680;5.976;2023-04-09T07:19:18;102401.63;;;9.58;79.46
66887;BME280;67239;51.680;5.976;2023-04-09T07:21:45;102412.13;;;9.67;78.81
66887;BME280;67239;51.680;5.976;2023-04-09T07:24:12;102413.91;;;9.71;78.60
66887;BME280;67239;51.680;5.976;2023-04-09T07:26:40;102406.84;;;9.75;77.54
66887;BME280;67239;51.680;5.976;2023-04-09T07:29:08;102404.22;;;9.83;77.89
66887;BME280;67239;51.680;5.976;2023-04-09T07:31:35;102411.19;;;9.94;76.87
66887;BME280;67239;51.680;5.976;2023-04-09T07:34:03;102407.69;;;10.03;76.25
66887;BME280;67239;51.680;5.976;2023-04-09T07:36:30;102401.50;;;10.14;74.02
66887;BME280;67239;51.680;5.976;2023-04-09T07:38:57;102411.19;;;10.10;74.05
66887;BME280;67239;51.680;5.976;2023-04-09T07:41:24;102405.88;;;10.15;74.53
66887;BME280;67239;51.680;5.976;2023-04-09T07:43:51;102397.03;;;10.30;73.63
66887;BME280;67239;51.680;5.976;2023-04-09T07:46:19;102400.53;;;10.36;73.80
66887;BME280;67239;51.680;5.976;2023-04-09T07:48:49;102396.16;;;10.40;73.13
66887;BME280;67239;51.680;5.976;2023-04-09T07:51:17;102399.63;;;10.48;73.99
66887;BME280;67239;51.680;5.976;2023-04-09T07:53:45;102399.53;;;10.64;73.66
66887;BME280;67239;51.680;5.976;2023-04-09T07:56:12;102397.72;;;10.77;73.55
66887;BME280;67239;51.680;5.976;2023-04-09T07:58:39;102396.72;;;10.90;72.87
66887;BME280;67239;51.680;5.976;2023-04-09T08:01:06;102399.25;;;11.07;73.13
66887;BME280;67239;51.680;5.976;2023-04-09T08:03:33;102399.09;;;11.26;71.66
66887;BME280;67239;51.680;5.976;2023-04-09T08:06:02;102397.31;;;11.34;70.01
66887;BME280;67239;51.680;5.976;2023-04-09T08:08:29;102399.91;;;11.39;69.80
66887;BME280;67239;51.680;5.976;2023-04-09T08:10:56;102400.72;;;11.44;69.37
66887;BME280;67239;51.680;5.976;2023-04-09T08:13:23;102395.38;;;11.50;69.52
66887;BME280;67239;51.680;5.976;2023-04-09T08:15:53;102391.78;;;11.57;68.89
66887;BME280;67239;51.680;5.976;2023-04-09T08:18:20;102397.91;;;11.64;68.15
66887;BME280;67239;51.680;5.976;2023-04-09T08:20:47;102393.41;;;11.72;68.22
66887;BME280;67239;51.680;5.976;2023-04-09T08:23:14;102395.94;;;11.81;66.15
66887;BME280;67239;51.680;5.976;2023-04-09T08:25:41;102395.88;;;11.89;65.48
66887;BME280;67239;51.680;5.976;2023-04-09T08:28:08;102397.56;;;11.98;65.82
66887;BME280;67239;51.680;5.976;2023-04-09T08:30:36;102395.69;;;12.08;66.36
66887;BME280;67239;51.680;5.976;2023-04-09T08:33:03;102399.97;;;12.17;66.16
66887;BME280;67239;51.680;5.976;2023-04-09T08:35:31;102400.75;;;12.26;64.59
66887;BME280;67239;51.680;5.976;2023-04-09T08:37:59;102400.63;;;12.36;64.80
66887;BME280;67239;51.680;5.976;2023-04-09T08:40:26;102404.00;;;12.47;63.39
66887;BME280;67239;51.680;5.976;2023-04-09T08:42:54;102402.16;;;12.54;64.50
66887;BME280;67239;51.680;5.976;2023-04-09T08:45:25;102399.34;;;12.65;64.15
66887;BME280;67239;51.680;5.976;2023-04-09T08:47:52;102400.06;;;12.78;63.00
66887;BME280;67239;51.680;5.976;2023-04-09T08:50:19;102399.88;;;12.90;62.79
66887;BME280;67239;51.680;5.976;2023-04-09T08:52:46;102399.75;;;12.98;62.59
66887;BME280;67239;51.680;5.976;2023-04-09T08:55:14;102403.16;;;13.06;62.46
66887;BME280;67239;51.680;5.976;2023-04-09T08:57:42;102402.22;;;13.10;62.20
66887;BME280;67239;51.680;5.976;2023-04-09T09:00:09;102382.72;;;13.16;61.98
66887;BME280;67239;51.680;5.976;2023-04-09T09:02:38;102384.34;;;13.23;59.24
66887;BME280;67239;51.680;5.976;2023-04-09T09:05:39;102387.94;;;13.19;60.17
66887;BME280;67239;51.680;5.976;2023-04-09T09:08:22;102376.50;;;13.18;59.41
66887;BME280;67239;51.680;5.976;2023-04-09T09:10:50;102379.19;;;13.17;58.88
66887;BME280;67239;51.680;5.976;2023-04-09T09:13:20;102375.59;;;13.18;58.26
66887;BME280;67239;51.680;5.976;2023-04-09T09:16:10;102371.97;;;13.25;57.94
66887;BME280;67239;51.680;5.976;2023-04-09T09:18:43;102373.66;;;13.29;57.78
66887;BME280;67239;51.680;5.976;2023-04-09T09:21:16;102370.91;;;13.34;58.09
66887;BME280;67239;51.680;5.976;2023-04-09T09:23:45;102372.56;;;13.43;57.88
66887;BME280;67239;51.680;5.976;2023-04-09T09:26:22;102375.09;;;13.50;56.16
66887;BME280;67239;51.680;5.976;2023-04-09T09:28:50;102369.69;;;13.55;54.75
66887;BME280;67239;51.680;5.976;2023-04-09T09:31:20;102370.56;;;13.56;54.36
66887;BME280;67239;51.680;5.976;2023-04-09T09:33:48;102371.50;;;13.53;54.41
66887;BME280;67239;51.680;5.976;2023-04-09T09:36:33;102366.06;;;13.61;54.77
66887;BME280;67239;51.680;5.976;2023-04-09T09:39:01;102373.03;;;13.66;54.80
66887;BME280;67239;51.680;5.976;2023-04-09T09:41:36;102366.69;;;13.74;53.09
66887;BME280;67239;51.680;5.976;2023-04-09T09:44:05;102366.66;;;13.75;53.73
66887;BME280;67239;51.680;5.976;2023-04-09T09:46:35;102368.44;;;13.75;53.61
66887;BME280;67239;51.680;5.976;2023-04-09T09:49:04;102360.47;;;13.76;55.54
66887;BME280;67239;51.680;5.976;2023-04-09T09:51:34;102362.00;;;13.88;53.79
66887;BME280;67239;51.680;5.976;2023-04-09T09:54:03;102353.88;;;13.97;52.26
66887;BME280;67239;51.680;5.976;2023-04-09T09:56:37;102356.44;;;14.01;52.13
66887;BME280;67239;51.680;5.976;2023-04-09T09:59:19;102348.38;;;14.05;53.59
66887;BME280;67239;51.680;5.976;2023-04-09T10:01:56;102351.63;;;14.20;51.75
66887;BME280;67239;51.680;5.976;2023-04-09T10:04:28;102347.13;;;14.23;51.92
66887;BME280;67239;51.680;5.976;2023-04-09T10:07:00;102339.97;;;14.28;50.97
66887;BME280;67239;51.680;5.976;2023-04-09T10:09:34;102345.53;;;14.14;51.98
66887;BME280;67239;51.680;5.976;2023-04-09T10:12:04;102341.94;;;14.19;52.17
66887;BME280;67239;51.680;5.976;2023-04-09T10:14:33;102346.69;;;14.03;51.46
66887;BME280;67239;51.680;5.976;2023-04-09T10:17:02;102336.31;;;13.92;52.17
66887;BME280;67239;51.680;5.976;2023-04-09T10:19:30;102337.31;;;13.86;51.52
66887;BME280;67239;51.680;5.976;2023-04-09T10:22:05;102330.13;;;13.91;49.47
66887;BME280;67239;51.680;5.976;2023-04-09T10:24:36;102332.94;;;13.84;51.29
66887;BME280;67239;51.680;5.976;2023-04-09T10:27:14;102325.91;;;13.81;51.97
66887;BME280;67239;51.680;5.976;2023-04-09T10:29:47;102325.16;;;13.74;51.37
66887;BME280;67239;51.680;5.976;2023-04-09T10:32:19;102328.38;;;13.90;51.37
66887;BME280;67239;51.680;5.976;2023-04-09T10:34:49;102314.09;;;13.97;49.67
66887;BME280;67239;51.680;5.976;2023-04-09T10:37:26;102308.41;;;14.14;46.90
66887;BME280;67239;51.680;5.976;2023-04-09T10:39:54;102317.09;;;14.21;48.21
66887;BME280;67239;51.680;5.976;2023-04-09T10:45:12;102311.16;;;14.51;48.27
66887;BME280;67239;51.680;5.976;2023-04-09T10:47:42;102304.81;;;14.56;48.48
66887;BME280;67239;51.680;5.976;2023-04-09T10:52:44;102306.47;;;14.62;48.70
66887;BME280;67239;51.680;5.976;2023-04-09T10:55:29;102309.00;;;14.68;49.23
66887;BME280;67239;51.680;5.976;2023-04-09T10:58:02;102302.53;;;14.80;46.24
66887;BME280;67239;51.680;5.976;2023-04-09T11:00:32;102301.09;;;14.67;45.69
66887;BME280;67239;51.680;5.976;2023-04-09T11:03:12;102298.47;;;14.64;47.82
66887;BME280;67239;51.680;5.976;2023-04-09T11:05:59;102296.72;;;14.63;48.75
66887;BME280;67239;51.680;5.976;2023-04-09T11:08:30;102296.50;;;14.72;46.31
66887;BME280;67239;51.680;5.976;2023-04-09T11:11:00;102279.78;;;14.70;47.01
66887;BME280;67239;51.680;5.976;2023-04-09T11:13:30;102290.91;;;14.84;46.36
66887;BME280;67239;51.680;5.976;2023-04-09T11:15:58;102285.59;;;14.84;45.24
66887;BME280;67239;51.680;5.976;2023-04-09T11:18:28;102286.50;;;14.83;46.80
66887;BME280;67239;51.680;5.976;2023-04-09T11:21:00;102288.19;;;14.87;45.42
66887;BME280;67239;51.680;5.976;2023-04-09T11:23:30;102282.88;;;14.87;46.40
66887;BME280;67239;51.680;5.976;2023-04-09T11:25:58;102278.63;;;14.80;45.55
66887;BME280;67239;51.680;5.976;2023-04-09T11:28:26;102281.19;;;14.85;44.70
66887;BME280;67239;51.680;5.976;2023-04-09T11:30:53;102273.28;;;14.82;45.06
66887;BME280;67239;51.680;5.976;2023-04-09T11:33:20;102261.63;;;14.87;45.14
66887;BME280;67239;51.680;5.976;2023-04-09T11:35:47;102266.28;;;14.78;45.21
66887;BME280;67239;51.680;5.976;2023-04-09T11:38:16;102275.47;;;14.63;46.50
66887;BME280;67239;51.680;5.976;2023-04-09T11:40:43;102272.03;;;14.59;47.56
66887;BME280;67239;51.680;5.976;2023-04-09T11:43:15;102277.50;;;14.51;46.83
66887;BME280;67239;51.680;5.976;2023-04-09T11:45:44;102274.00;;;14.51;47.01
66887;BME280;67239;51.680;5.976;2023-04-09T11:48:15;102273.53;;;14.71;46.14
66887;BME280;67239;51.680;5.976;2023-04-09T11:50:45;102269.44;;;14.94;47.16
66887;BME280;67239;51.680;5.976;2023-04-09T11:53:17;102275.53;;;15.30;48.67
66887;BME280;67239;51.680;5.976;2023-04-09T11:55:51;102278.09;;;15.66;48.92
66887;BME280;67239;51.680;5.976;2023-04-09T11:58:24;102271.47;;;15.80;48.56
66887;BME280;67239;51.680;5.976;2023-04-09T12:00:58;102274.66;;;15.94;47.24
66887;BME280;67239;51.680;5.976;2023-04-09T12:03:30;102269.91;;;16.04;47.17
66887;BME280;67239;51.680;5.976;2023-04-09T12:06:03;102275.47;;;16.25;47.20
66887;BME280;67239;51.680;5.976;2023-04-09T12:08:34;102273.31;;;16.38;44.94
66887;BME280;67239;51.680;5.976;2023-04-09T12:11:07;102273.44;;;16.33;43.21
66887;BME280;67239;51.680;5.976;2023-04-09T12:13:39;102264.97;;;16.20;44.10
66887;BME280;67239;51.680;5.976;2023-04-09T12:16:12;102266.44;;;16.02;44.03
66887;BME280;67239;51.680;5.976;2023-04-09T12:18:40;102256.72;;;16.01;43.96
66887;BME280;67239;51.680;5.976;2023-04-09T12:21:07;102261.69;;;16.12;43.77
66887;BME280;67239;51.680;5.976;2023-04-09T12:23:38;102255.59;;;16.08;43.75
66887;BME280;67239;51.680;5.976;2023-04-09T12:26:05;102256.97;;;16.22;45.10
66887;BME280;67239;51.680;5.976;2023-04-09T12:28:32;102263.28;;;16.18;43.17
66887;BME280;67239;51.680;5.976;2023-04-09T12:30:59;102260.56;;;15.91;43.34
66887;BME280;67239;51.680;5.976;2023-04-09T12:33:28;102260.06;;;15.76;44.79
66887;BME280;67239;51.680;5.976;2023-04-09T12:35:57;102249.09;;;15.89;43.23
66887;BME280;67239;51.680;5.976;2023-04-09T12:38:24;102244.13;;;16.06;43.81
66887;BME280;67239;51.680;5.976;2023-04-09T12:40:52;102243.25;;;16.34;45.21
66887;BME280;67239;51.680;5.976;2023-04-09T12:43:19;102239.47;;;16.68;45.48
66887;BME280;67239;51.680;5.976;2023-04-09T12:45:46;102240.41;;;16.94;43.28
66887;BME280;67239;51.680;5.976;2023-04-09T12:48:13;102245.44;;;17.03;42.69
66887;BME280;67239;51.680;5.976;2023-04-09T12:50:41;102238.94;;;17.11;41.89
66887;BME280;67239;51.680;5.976;2023-04-09T12:53:08;102229.91;;;17.15;41.85
66887;BME280;67239;51.680;5.976;2023-04-09T12:55:36;102233.00;;;17.28;41.51
66887;BME280;67239;51.680;5.976;2023-04-09T12:58:03;102234.81;;;17.51;43.16
66887;BME280;67239;51.680;5.976;2023-04-09T13:00:30;102231.16;;;17.77;41.04
66887;BME280;67239;51.680;5.976;2023-04-09T13:02:59;102236.88;;;17.90;41.29
66887;BME280;67239;51.680;5.976;2023-04-09T13:05:26;102237.28;;;18.03;42.25
66887;BME280;67239;51.680;5.976;2023-04-09T13:07:53;102238.09;;;18.27;41.46
66887;BME280;67239;51.680;5.976;2023-04-09T13:10:20;102233.91;;;18.44;40.79
66887;BME280;67239;51.680;5.976;2023-04-09T13:12:47;102235.97;;;18.58;40.95
66887;BME280;67239;51.680;5.976;2023-04-09T13:15:14;102237.56;;;18.62;39.15
66887;BME280;67239;51.680;5.976;2023-04-09T13:17:41;102235.25;;;18.54;39.01
66887;BME280;67239;51.680;5.976;2023-04-09T13:20:08;102242.91;;;18.62;41.10